createdAt,value
2023-10-10T00:02:23.515Z,92.10
2023-10-10T00:04:51.692Z,92.00
2023-10-10T00:07:20.463Z,92.00
2023-10-10T00:09:48.387Z,92.00
2023-10-10T00:12:22.416Z,91.90
2023-10-10T00:14:52.111Z,92.10
2023-10-10T00:17:22.125Z,92.10
2023-10-10T00:20:00.293Z,92.10
2023-10-10T00:22:36.523Z,92.10
2023-10-10T00:25:07.069Z,92.10
2023-10-10T00:27:37.198Z,92.10
2023-10-10T00:30:06.114Z,92.10
2023-10-10T00:32:37.165Z,92.20
2023-10-10T00:35:07.795Z,92.20
2023-10-10T00:37:37.248Z,92.30
2023-10-10T00:40:09.747Z,92.30
2023-10-10T00:42:44.895Z,92.40
2023-10-10T00:45:16.154Z,92.50
2023-10-10T00:47:46.334Z,92.40
2023-10-10T00:50:17.810Z,92.30
2023-10-10T00:52:50.151Z,92.30
2023-10-10T00:55:27.025Z,92.30
2023-10-10T00:57:58.031Z,92.30
2023-10-10T01:00:31.311Z,92.20
2023-10-10T01:03:23.107Z,92.30
2023-10-10T01:05:57.674Z,92.30
2023-10-10T01:08:28.672Z,92.40
2023-10-10T01:11:05.784Z,92.50
2023-10-10T01:13:35.234Z,92.50
2023-10-10T01:16:06.760Z,92.50
2023-10-10T01:18:53.036Z,92.50
2023-10-10T01:21:31.278Z,92.50
2023-10-10T01:24:09.135Z,92.50
2023-10-10T01:26:46.301Z,92.60
2023-10-10T01:29:21.238Z,92.60
2023-10-10T01:31:50.111Z,92.60
2023-10-10T01:34:47.136Z,92.60
2023-10-10T01:37:24.314Z,92.50
2023-10-10T01:40:27.726Z,92.50
2023-10-10T01:43:00.949Z,92.40
2023-10-10T01:45:28.866Z,92.40
2023-10-10T01:47:59.606Z,92.40
2023-10-10T01:50:32.205Z,92.30
2023-10-10T01:52:59.720Z,92.30
2023-10-10T01:55:27.416Z,92.20
2023-10-10T01:58:03.838Z,92.20
2023-10-10T02:00:36.005Z,92.20
2023-10-10T02:03:05.489Z,92.10
2023-10-10T02:05:38.836Z,92.10
2023-10-10T02:08:17.904Z,92.00
2023-10-10T02:10:51.597Z,92.00
2023-10-10T02:13:21.261Z,91.90
2023-10-10T02:15:48.793Z,91.90
2023-10-10T02:18:25.306Z,91.90
2023-10-10T02:20:54.313Z,91.90
2023-10-10T02:23:35.043Z,91.90
2023-10-10T02:26:15.882Z,92.00
2023-10-10T02:29:04.054Z,92.00
2023-10-10T02:31:33.789Z,92.00
2023-10-10T02:34:04.536Z,91.90
2023-10-10T02:36:32.690Z,91.90
2023-10-10T02:39:19.485Z,91.80
2023-10-10T02:41:51.470Z,91.80
2023-10-10T02:44:39.751Z,91.70
2023-10-10T02:47:13.642Z,91.70
2023-10-10T02:49:43.373Z,91.70
2023-10-10T02:52:16.347Z,91.70
2023-10-10T02:54:55.694Z,91.80
2023-10-10T02:57:27.249Z,91.80
2023-10-10T03:00:17.666Z,91.90
2023-10-10T03:02:55.013Z,91.90
2023-10-10T03:05:41.649Z,92.00
2023-10-10T03:08:20.809Z,92.10
2023-10-10T03:10:55.877Z,92.20
2023-10-10T03:13:37.394Z,92.20
2023-10-10T03:16:30.929Z,92.20
2023-10-10T03:19:04.822Z,92.20
2023-10-10T03:21:50.281Z,92.20
2023-10-10T03:24:24.729Z,92.10
2023-10-10T03:27:10.838Z,92.10
2023-10-10T03:29:40.228Z,92.10
2023-10-10T03:32:26.779Z,92.10
2023-10-10T03:34:59.222Z,92.10
2023-10-10T03:37:29.040Z,92.10
2023-10-10T03:40:00.210Z,92.10
2023-10-10T03:42:46.982Z,92.00
2023-10-10T03:45:32.826Z,92.00
2023-10-10T03:48:19.267Z,92.00
2023-10-10T03:51:05.192Z,92.00
2023-10-10T03:53:51.118Z,92.00
2023-10-10T03:56:40.171Z,91.90
2023-10-10T03:59:26.332Z,91.90
2023-10-10T04:02:15.199Z,91.90
2023-10-10T04:05:16.138Z,91.80
2023-10-10T04:08:07.940Z,91.80
2023-10-10T04:10:56.078Z,91.80
2023-10-10T04:13:42.102Z,91.90
2023-10-10T04:16:27.878Z,91.70
2023-10-10T04:19:14.522Z,91.60
2023-10-10T04:22:00.754Z,91.60
2023-10-10T04:24:47.601Z,91.80
2023-10-10T04:27:34.352Z,91.90
2023-10-10T04:30:20.401Z,91.90
2023-10-10T04:33:06.327Z,91.90
2023-10-10T04:35:52.467Z,91.90
2023-10-10T04:38:38.229Z,91.80
2023-10-10T04:41:23.999Z,91.70
2023-10-10T04:44:10.704Z,91.60
2023-10-10T04:46:56.916Z,91.50
2023-10-10T04:49:42.843Z,91.40
2023-10-10T04:52:28.666Z,91.40
2023-10-10T04:55:14.617Z,91.40
2023-10-10T04:58:00.352Z,91.20
2023-10-10T05:00:46.421Z,91.20
2023-10-10T05:03:32.354Z,91.10
2023-10-10T05:06:20.506Z,91.10
2023-10-10T05:09:06.894Z,91.00
2023-10-10T05:11:53.002Z,91.00
2023-10-10T05:14:38.625Z,90.90
2023-10-10T05:17:24.683Z,90.80
2023-10-10T05:20:12.131Z,90.80
2023-10-10T05:22:58.929Z,90.80
2023-10-10T05:25:26.465Z,90.70
2023-10-10T05:28:00.098Z,90.70
2023-10-10T05:30:41.187Z,90.60
2023-10-10T05:33:08.907Z,90.60
2023-10-10T05:35:40.029Z,90.50
2023-10-10T05:38:11.457Z,90.50
2023-10-10T05:40:41.915Z,90.80
2023-10-10T05:43:10.930Z,90.80
2023-10-10T05:45:38.700Z,90.50
2023-10-10T05:48:06.700Z,90.40
2023-10-10T05:50:34.255Z,90.30
2023-10-10T05:53:07.798Z,90.30
2023-10-10T05:55:36.264Z,90.30
2023-10-10T05:58:04.009Z,90.20
2023-10-10T06:00:46.132Z,90.20
2023-10-10T06:03:18.535Z,90.20
2023-10-10T06:05:47.152Z,90.20
2023-10-10T06:08:14.841Z,90.10
2023-10-10T06:10:43.143Z,90.10
2023-10-10T06:13:12.974Z,90.00
2023-10-10T06:15:41.162Z,90.00
2023-10-10T06:18:13.954Z,90.00
2023-10-10T06:20:51.305Z,89.90
2023-10-10T06:23:34.556Z,89.80
2023-10-10T06:26:05.727Z,89.70
2023-10-10T06:28:47.019Z,89.70
2023-10-10T06:31:22.606Z,89.70
2023-10-10T06:33:55.508Z,89.70
2023-10-10T06:36:23.985Z,89.80
2023-10-10T06:39:06.346Z,89.70
2023-10-10T06:41:38.227Z,89.70
2023-10-10T06:44:06.208Z,89.70
2023-10-10T06:46:33.900Z,89.70
2023-10-10T06:49:07.512Z,89.70
2023-10-10T06:51:41.302Z,89.70
2023-10-10T06:54:21.728Z,89.70
2023-10-10T06:57:06.144Z,89.60
2023-10-10T06:59:34.175Z,89.60
2023-10-10T07:02:03.135Z,89.50
2023-10-10T07:04:30.722Z,89.40
2023-10-10T07:07:02.644Z,89.40
2023-10-10T07:09:31.278Z,89.40
2023-10-10T07:12:11.933Z,89.30
2023-10-10T07:14:47.278Z,89.30
2023-10-10T07:17:16.021Z,89.30
2023-10-10T07:20:16.959Z,89.20
2023-10-10T07:22:46.737Z,89.20
2023-10-10T07:25:33.431Z,89.20
2023-10-10T07:28:03.204Z,89.20
2023-10-10T07:30:37.445Z,89.20
2023-10-10T07:33:05.822Z,89.10
2023-10-10T07:35:38.294Z,89.10
2023-10-10T07:38:06.477Z,89.10
2023-10-10T07:40:39.442Z,89.10
2023-10-10T07:43:09.164Z,89.00
2023-10-10T07:45:44.664Z,89.00
2023-10-10T07:48:12.689Z,89.00
2023-10-10T07:50:50.305Z,88.90
2023-10-10T07:53:19.271Z,89.00
2023-10-10T07:55:53.524Z,89.00
2023-10-10T07:58:37.422Z,89.00
2023-10-10T08:01:17.982Z,89.00
2023-10-10T08:03:47.849Z,88.90
2023-10-10T08:06:27.398Z,88.80
2023-10-10T08:09:14.498Z,88.80
2023-10-10T08:11:41.900Z,88.80
2023-10-10T08:14:10.463Z,88.80
2023-10-10T08:16:41.386Z,88.70
2023-10-10T08:19:09.930Z,88.60
2023-10-10T08:21:40.610Z,88.60
2023-10-10T08:24:13.676Z,88.60
2023-10-10T08:26:42.785Z,88.70
2023-10-10T08:29:13.098Z,88.50
2023-10-10T08:31:44.919Z,88.60
2023-10-10T08:34:12.840Z,88.60
2023-10-10T08:36:46.008Z,88.50
2023-10-10T08:39:34.021Z,88.50
2023-10-10T08:42:16.430Z,88.50
2023-10-10T08:44:49.956Z,88.50
2023-10-10T08:47:27.197Z,88.50
2023-10-10T08:49:54.842Z,88.50
2023-10-10T08:52:24.525Z,88.50
2023-10-10T08:54:54.902Z,88.50
2023-10-10T08:57:28.752Z,88.40
2023-10-10T08:59:56.446Z,88.40
2023-10-10T09:02:24.500Z,88.40
2023-10-10T09:04:52.519Z,88.50
2023-10-10T09:07:28.393Z,88.50
2023-10-10T09:10:15.343Z,88.50
2023-10-10T09:12:59.857Z,88.50
2023-10-10T09:15:28.902Z,88.50
2023-10-10T09:18:16.536Z,88.50
2023-10-10T09:20:47.039Z,88.50
2023-10-10T09:23:27.545Z,88.50
2023-10-10T09:26:42.180Z,88.50
2023-10-10T09:29:17.565Z,88.50
2023-10-10T09:32:00.336Z,88.50
2023-10-10T09:34:37.560Z,88.40
2023-10-10T09:37:08.639Z,88.40
2023-10-10T09:39:41.683Z,88.40
2023-10-10T09:42:44.913Z,88.40
2023-10-10T09:45:37.349Z,89.20
2023-10-10T09:48:18.729Z,89.10
2023-10-10T09:51:08.328Z,88.40
2023-10-10T09:53:37.755Z,88.50
2023-10-10T09:56:11.086Z,88.50
2023-10-10T09:58:43.856Z,88.40
2023-10-10T10:01:23.755Z,88.40
2023-10-10T10:04:01.441Z,88.30
2023-10-10T10:07:06.981Z,88.40
2023-10-10T10:09:57.521Z,88.30
2023-10-10T10:13:10.924Z,88.30
2023-10-10T10:16:16.697Z,88.40
2023-10-10T10:18:49.015Z,88.30
2023-10-10T10:21:26.408Z,88.30
2023-10-10T10:24:11.853Z,88.40
2023-10-10T10:26:46.158Z,88.40
2023-10-10T10:29:17.684Z,88.30
2023-10-10T10:31:53.344Z,88.10
2023-10-10T10:34:46.824Z,88.10
2023-10-10T10:37:22.882Z,88.30
2023-10-10T10:40:24.320Z,88.40
2023-10-10T10:42:53.261Z,88.60
2023-10-10T10:45:39.680Z,89.00
2023-10-10T10:48:12.241Z,88.90
2023-10-10T10:50:42.560Z,89.10
2023-10-10T10:53:32.774Z,89.40
2023-10-10T10:56:31.172Z,89.40
2023-10-10T10:59:15.463Z,89.70
2023-10-10T11:02:01.017Z,89.60
2023-10-10T11:04:35.502Z,89.60
2023-10-10T11:07:05.298Z,89.60
2023-10-10T11:09:35.460Z,89.50
2023-10-10T11:12:08.330Z,89.60
2023-10-10T11:14:46.976Z,89.60
2023-10-10T11:17:21.094Z,89.60
2023-10-10T11:19:55.295Z,89.60
2023-10-10T11:22:42.666Z,89.60
2023-10-10T11:25:13.629Z,89.60
2023-10-10T11:27:46.991Z,89.70
2023-10-10T11:30:26.192Z,89.70
2023-10-10T11:33:14.581Z,89.70
2023-10-10T11:35:43.073Z,89.70
2023-10-10T11:38:10.767Z,89.80
2023-10-10T11:40:38.455Z,89.90
2023-10-10T11:43:07.840Z,89.90
2023-10-10T11:45:52.957Z,89.90
2023-10-10T11:48:21.300Z,89.80
2023-10-10T11:50:53.422Z,89.80
2023-10-10T11:53:26.701Z,89.70
2023-10-10T11:55:54.947Z,89.60
2023-10-10T11:58:37.840Z,89.70
2023-10-10T12:01:11.601Z,89.70
2023-10-10T12:03:39.776Z,89.80
2023-10-10T12:06:19.482Z,89.60
2023-10-10T12:08:51.961Z,89.70
2023-10-10T12:11:24.041Z,89.80
2023-10-10T12:13:52.924Z,89.80
2023-10-10T12:16:29.134Z,89.80
2023-10-10T12:18:56.795Z,89.80
2023-10-10T12:21:25.253Z,89.80
2023-10-10T12:24:01.372Z,89.70
2023-10-10T12:26:31.836Z,89.70
2023-10-10T12:28:59.943Z,89.60
2023-10-10T12:31:27.443Z,89.70
2023-10-10T12:33:55.702Z,89.70
2023-10-10T12:36:24.509Z,89.70
2023-10-10T12:38:52.695Z,89.70
2023-10-10T12:41:23.083Z,89.80
2023-10-10T12:43:51.845Z,89.80
2023-10-10T12:46:22.880Z,89.80
2023-10-10T12:48:53.652Z,89.80
2023-10-10T12:51:25.676Z,89.80
2023-10-10T12:54:02.798Z,89.80
2023-10-10T12:56:30.563Z,89.80
2023-10-10T13:01:37.449Z,89.70
2023-10-10T13:04:09.584Z,89.70
2023-10-10T13:06:38.254Z,89.60
2023-10-10T13:09:07.102Z,89.60
2023-10-10T13:11:37.503Z,89.60
2023-10-10T13:14:11.868Z,89.50
2023-10-10T13:16:54.224Z,89.50
2023-10-10T13:19:25.616Z,89.50
2023-10-10T13:21:54.161Z,89.50
2023-10-10T13:24:22.312Z,89.50
2023-10-10T13:26:51.093Z,89.40
2023-10-10T13:29:18.814Z,89.40
2023-10-10T13:31:46.533Z,89.30
2023-10-10T13:34:15.507Z,89.20
2023-10-10T13:36:43.193Z,89.30
2023-10-10T13:39:16.456Z,89.30
2023-10-10T13:41:43.994Z,89.20
2023-10-10T13:44:12.470Z,89.20
2023-10-10T13:46:40.086Z,89.20
2023-10-10T13:49:10.772Z,89.20
2023-10-10T13:51:43.524Z,89.20
2023-10-10T13:54:14.879Z,89.10
2023-10-10T13:56:45.337Z,89.10
2023-10-10T13:59:12.707Z,89.10
2023-10-10T14:01:41.691Z,89.90
2023-10-10T14:04:40.121Z,89.10
2023-10-10T14:07:09.556Z,89.10
2023-10-10T14:09:48.154Z,89.00
2023-10-10T14:12:25.039Z,89.10
2023-10-10T14:14:53.430Z,89.00
2023-10-10T14:17:20.860Z,89.00
2023-10-10T14:19:48.256Z,88.90
2023-10-10T14:22:20.955Z,89.00
2023-10-10T14:24:51.403Z,89.00
2023-10-10T14:27:18.986Z,88.90
2023-10-10T14:29:46.481Z,88.90
2023-10-10T14:32:30.935Z,88.90
2023-10-10T14:35:04.521Z,88.70
2023-10-10T14:37:45.247Z,88.70
2023-10-10T14:40:21.205Z,88.80
2023-10-10T14:42:48.935Z,88.70
2023-10-10T14:45:16.936Z,88.70
2023-10-10T14:47:45.521Z,88.60
2023-10-10T14:50:14.721Z,88.60
2023-10-10T14:52:48.894Z,88.70
2023-10-10T14:55:37.131Z,88.70
2023-10-10T14:58:10.012Z,88.60
2023-10-10T15:00:45.429Z,88.50
2023-10-10T15:03:20.405Z,88.50
2023-10-10T15:05:51.892Z,88.50
2023-10-10T15:08:24.492Z,88.60
2023-10-10T15:10:52.851Z,88.50
2023-10-10T15:13:20.830Z,88.50
2023-10-10T15:15:49.679Z,88.50
2023-10-10T15:18:20.850Z,88.50
2023-10-10T15:20:50.358Z,88.50
2023-10-10T15:23:24.210Z,88.50
2023-10-10T15:26:06.705Z,88.50
2023-10-10T15:28:35.976Z,88.50
2023-10-10T15:31:03.577Z,88.50
2023-10-10T15:33:32.461Z,88.40
2023-10-10T15:36:02.000Z,88.50
2023-10-10T15:38:30.813Z,88.50
2023-10-10T15:40:58.741Z,88.50
2023-10-10T15:43:32.796Z,88.50
2023-10-10T15:46:01.306Z,88.50
2023-10-10T15:48:29.311Z,88.40
2023-10-10T15:51:00.702Z,88.40
2023-10-10T15:53:28.958Z,88.40
2023-10-10T15:56:12.745Z,88.40
2023-10-10T15:58:51.431Z,88.40
2023-10-10T16:01:29.281Z,88.40
2023-10-10T16:04:02.134Z,88.40
2023-10-10T16:06:36.423Z,88.40
2023-10-10T16:09:13.631Z,88.40
2023-10-10T16:11:42.177Z,88.40
2023-10-10T16:14:13.026Z,88.30
2023-10-10T16:16:48.101Z,88.30
2023-10-10T16:19:42.106Z,88.30
2023-10-10T16:22:14.360Z,88.30
2023-10-10T16:24:41.768Z,88.30
2023-10-10T16:27:09.615Z,88.30
2023-10-10T16:29:37.256Z,88.30
2023-10-10T16:32:10.875Z,88.20
2023-10-10T16:34:44.115Z,88.30
2023-10-10T16:37:16.265Z,88.30
2023-10-10T16:39:48.367Z,88.20
2023-10-10T16:42:20.293Z,88.30
2023-10-10T16:44:48.043Z,88.20
2023-10-10T16:47:19.344Z,88.30
2023-10-10T16:49:51.192Z,88.30
2023-10-10T16:52:27.745Z,88.20
2023-10-10T16:54:55.571Z,88.30
2023-10-10T16:57:26.353Z,88.30
2023-10-10T16:59:58.078Z,88.40
2023-10-10T17:02:30.020Z,88.40
2023-10-10T17:04:58.577Z,88.40
2023-10-10T17:07:29.069Z,88.40
2023-10-10T17:09:57.489Z,88.40
2023-10-10T17:12:25.393Z,88.50
2023-10-10T17:14:53.565Z,88.50
2023-10-10T17:17:20.950Z,88.50
2023-10-10T17:19:50.625Z,88.50
2023-10-10T17:22:18.475Z,88.50
2023-10-10T17:24:48.886Z,88.50
2023-10-10T17:27:16.810Z,88.50
2023-10-10T17:29:44.681Z,88.50
2023-10-10T17:32:12.733Z,88.50
2023-10-10T17:34:42.059Z,88.40
2023-10-10T17:37:10.669Z,88.40
2023-10-10T17:39:38.280Z,88.50
2023-10-10T17:42:08.013Z,88.50
2023-10-10T17:44:39.683Z,88.50
2023-10-10T17:47:07.243Z,88.40
2023-10-10T17:49:36.961Z,88.40
2023-10-10T17:52:05.100Z,88.40
2023-10-10T17:54:32.937Z,88.40
2023-10-10T17:57:00.476Z,88.50
2023-10-10T17:59:28.458Z,88.40
2023-10-10T18:01:55.820Z,88.40
2023-10-10T18:04:26.647Z,88.40
2023-10-10T18:06:54.813Z,88.40
2023-10-10T18:09:22.227Z,88.40
2023-10-10T18:11:50.417Z,88.40
2023-10-10T18:14:19.172Z,88.40
2023-10-10T18:16:47.589Z,88.40
2023-10-10T18:19:17.637Z,88.40
2023-10-10T18:21:46.711Z,88.40
2023-10-10T18:24:15.109Z,88.40
2023-10-10T18:26:42.158Z,88.40
2023-10-10T18:29:09.797Z,88.50
2023-10-10T18:31:40.056Z,89.00
2023-10-10T18:34:08.420Z,89.60
2023-10-10T18:36:39.072Z,89.80
2023-10-10T18:39:17.262Z,90.10
2023-10-10T18:41:45.359Z,90.20
2023-10-10T18:44:17.423Z,90.30
2023-10-10T18:46:45.043Z,90.40
2023-10-10T18:49:15.004Z,90.60
2023-10-10T18:51:43.616Z,90.60
2023-10-10T18:54:12.415Z,90.70
2023-10-10T18:56:39.471Z,90.70
2023-10-10T18:59:06.947Z,90.80
2023-10-10T19:01:39.496Z,91.00
2023-10-10T19:04:08.654Z,91.10
2023-10-10T19:06:41.395Z,91.20
2023-10-10T19:09:12.714Z,91.30
2023-10-10T19:11:40.255Z,91.40
2023-10-10T19:14:10.578Z,91.60
2023-10-10T19:16:38.109Z,91.80
2023-10-10T19:19:06.078Z,91.90
2023-10-10T19:21:33.340Z,91.90
2023-10-10T19:24:02.935Z,92.00
2023-10-10T19:26:30.338Z,91.90
2023-10-10T19:28:58.906Z,91.90
2023-10-10T19:31:26.047Z,92.00
2023-10-10T19:33:53.139Z,92.10
2023-10-10T19:36:21.885Z,92.10
2023-10-10T19:38:49.528Z,92.00
2023-10-10T19:41:19.908Z,92.00
2023-10-10T19:43:52.892Z,92.20
2023-10-10T19:46:21.324Z,92.20
2023-10-10T19:48:52.092Z,92.20
2023-10-10T19:51:20.341Z,92.20
2023-10-10T19:53:55.043Z,92.20
2023-10-10T19:56:22.485Z,92.10
2023-10-10T19:58:49.991Z,92.10
2023-10-10T20:01:17.400Z,92.10
2023-10-10T20:03:45.297Z,92.20
2023-10-10T20:06:16.763Z,92.20
2023-10-10T20:08:43.742Z,92.20
2023-10-10T20:11:10.573Z,92.20
2023-10-10T20:13:38.106Z,92.20
2023-10-10T20:16:18.120Z,92.20
2023-10-10T20:18:45.779Z,92.30
2023-10-10T20:21:18.224Z,92.20
2023-10-10T20:23:46.112Z,92.30
2023-10-10T20:26:20.091Z,92.40
2023-10-10T20:28:49.595Z,92.50
2023-10-10T20:31:22.897Z,92.50
2023-10-10T20:33:52.015Z,92.60
2023-10-10T20:36:19.278Z,92.60
2023-10-10T20:38:46.609Z,92.60
2023-10-10T20:41:15.692Z,92.70
2023-10-10T20:43:44.329Z,92.80
2023-10-10T20:46:19.757Z,92.80
2023-10-10T20:48:48.099Z,93.00
2023-10-10T20:51:15.225Z,93.00
2023-10-10T20:53:43.696Z,93.20
2023-10-10T20:56:11.971Z,93.40
2023-10-10T20:58:39.841Z,93.40
2023-10-10T21:01:13.416Z,93.60
2023-10-10T21:03:41.750Z,93.60
2023-10-10T21:06:09.386Z,93.70
2023-10-10T21:08:37.991Z,93.80
2023-10-10T21:11:12.284Z,93.90
2023-10-10T21:13:40.117Z,94.00
2023-10-10T21:16:16.262Z,94.50
2023-10-10T21:18:46.651Z,94.30
2023-10-10T21:21:15.849Z,94.30
2023-10-10T21:23:44.244Z,94.40
2023-10-10T21:26:13.414Z,94.40
2023-10-10T21:28:41.527Z,94.50
2023-10-10T21:31:11.549Z,94.60
2023-10-10T21:33:45.376Z,94.60
2023-10-10T21:36:14.089Z,94.70
2023-10-10T21:38:42.149Z,94.70
2023-10-10T21:41:11.528Z,94.60
2023-10-10T21:43:40.062Z,94.60
2023-10-10T21:46:08.918Z,94.50
2023-10-10T21:48:37.076Z,94.50
2023-10-10T21:51:07.476Z,94.60
2023-10-10T21:53:38.384Z,94.60
2023-10-10T21:56:07.030Z,94.50
2023-10-10T21:58:34.532Z,94.60
2023-10-10T22:01:04.038Z,94.50
2023-10-10T22:03:32.007Z,94.40
2023-10-10T22:06:01.721Z,94.40
2023-10-10T22:08:29.517Z,94.30
2023-10-10T22:10:59.312Z,94.30
2023-10-10T22:13:29.642Z,94.20
2023-10-10T22:15:57.997Z,94.20
2023-10-10T22:18:25.596Z,94.10
2023-10-10T22:20:53.823Z,94.10
2023-10-10T22:23:21.385Z,94.10
2023-10-10T22:25:49.044Z,94.00
2023-10-10T22:28:16.922Z,94.00
2023-10-10T22:30:45.191Z,94.00
2023-10-10T22:33:12.881Z,93.90
2023-10-10T22:35:41.127Z,93.90
2023-10-10T22:38:12.664Z,93.90
2023-10-10T22:40:40.499Z,93.90
2023-10-10T22:43:10.031Z,94.00
2023-10-10T22:45:38.847Z,94.00
2023-10-10T22:48:10.514Z,94.00
2023-10-10T22:50:39.814Z,94.10
2023-10-10T22:53:10.790Z,94.10
2023-10-10T22:55:41.004Z,94.30
2023-10-10T22:58:09.215Z,94.40
2023-10-10T23:00:41.035Z,94.40
2023-10-10T23:03:14.309Z,94.50
2023-10-10T23:05:44.669Z,94.50
2023-10-10T23:08:14.523Z,94.50
2023-10-10T23:10:42.018Z,94.60
2023-10-10T23:13:09.594Z,94.70
2023-10-10T23:15:39.012Z,94.70
2023-10-10T23:18:12.246Z,94.80
2023-10-10T23:20:42.763Z,94.90
2023-10-10T23:23:11.851Z,94.80
2023-10-10T23:25:40.076Z,94.80
2023-10-10T23:28:10.102Z,94.80
2023-10-10T23:30:40.836Z,94.90
2023-10-10T23:33:17.661Z,94.90
2023-10-10T23:35:50.082Z,94.90
2023-10-10T23:38:21.123Z,95.10
2023-10-10T23:40:50.438Z,95.00
2023-10-10T23:43:23.106Z,95.00
2023-10-10T23:46:01.205Z,95.00
2023-10-10T23:48:32.721Z,95.00
2023-10-10T23:51:01.271Z,94.90
2023-10-10T23:53:28.762Z,94.90
2023-10-10T23:56:00.845Z,94.80
2023-10-10T23:58:31.041Z,94.80
